sensor_id;sensor_type;location;lat;lon;timestamp;temperature;humidity
26230;DHT22;13960;50.860;4.352;2022-12-18T00:01:56;-1.50;99.90
26230;DHT22;13960;50.860;4.352;2022-12-18T00:04:24;-1.50;99.90
26230;DHT22;13960;50.860;4.352;2022-12-18T00:06:49;-1.40;99.90
26230;DHT22;13960;50.860;4.352;2022-12-18T00:09:15;-1.20;99.90
26230;DHT22;13960;50.860;4.352;2022-12-18T00:11:41;-1.40;99.90
26230;DHT22;13960;50.860;4.352;2022-12-18T00:14:06;-1.20;99.90
26230;DHT22;13960;50.860;4.352;2022-12-18T00:16:32;-1.30;99.90
26230;DHT22;13960;50.860;4.352;2022-12-18T00:19:00;-1.60;99.90
26230;DHT22;13960;50.860;4.352;2022-12-18T00:21:26;-2.00;99.90
26230;DHT22;13960;50.860;4.352;2022-12-18T00:23:52;-2.20;99.90
26230;DHT22;13960;50.860;4.352;2022-12-18T00:26:51;-2.00;99.90
26230;DHT22;13960;50.860;4.352;2022-12-18T00:29:10;-1.80;99.90
26230;DHT22;13960;50.860;4.352;2022-12-18T00:31:36;-1.70;99.90
26230;DHT22;13960;50.860;4.352;2022-12-18T00:34:02;-2.00;99.90
26230;DHT22;13960;50.860;4.352;2022-12-18T00:36:28;-2.00;99.90
26230;DHT22;13960;50.860;4.352;2022-12-18T00:38:55;-1.90;99.90
26230;DHT22;13960;50.860;4.352;2022-12-18T00:41:21;-1.80;99.90
26230;DHT22;13960;50.860;4.352;2022-12-18T00:44:06;-1.60;99.90
26230;DHT22;13960;50.860;4.352;2022-12-18T00:46:32;-1.50;99.90
26230;DHT22;13960;50.860;4.352;2022-12-18T00:48:58;-1.40;99.90
26230;DHT22;13960;50.860;4.352;2022-12-18T00:51:24;-1.40;99.90
26230;DHT22;13960;50.860;4.352;2022-12-18T00:53:49;-1.50;99.90
26230;DHT22;13960;50.860;4.352;2022-12-18T00:56:15;-1.80;99.90
26230;DHT22;13960;50.860;4.352;2022-12-18T00:58:40;-1.90;99.90
26230;DHT22;13960;50.860;4.352;2022-12-18T01:01:06;-2.00;99.90
26230;DHT22;13960;50.860;4.352;2022-12-18T01:03:32;-2.00;99.90
26230;DHT22;13960;50.860;4.352;2022-12-18T01:05:58;-2.10;99.90
26230;DHT22;13960;50.860;4.352;2022-12-18T01:08:23;-2.40;99.90
26230;DHT22;13960;50.860;4.352;2022-12-18T01:10:49;-2.30;99.90
26230;DHT22;13960;50.860;4.352;2022-12-18T01:13:14;-2.50;99.90
26230;DHT22;13960;50.860;4.352;2022-12-18T01:15:40;-2.60;99.90
26230;DHT22;13960;50.860;4.352;2022-12-18T01:18:06;-2.70;99.90
26230;DHT22;13960;50.860;4.352;2022-12-18T01:20:32;-2.70;99.90
26230;DHT22;13960;50.860;4.352;2022-12-18T01:22:58;-2.70;99.90
26230;DHT22;13960;50.860;4.352;2022-12-18T01:25:23;-2.80;99.90
26230;DHT22;13960;50.860;4.352;2022-12-18T01:27:49;-2.90;99.90
26230;DHT22;13960;50.860;4.352;2022-12-18T01:30:14;-3.00;99.90
26230;DHT22;13960;50.860;4.352;2022-12-18T01:32:40;-3.10;99.90
26230;DHT22;13960;50.860;4.352;2022-12-18T01:35:05;-3.20;99.90
26230;DHT22;13960;50.860;4.352;2022-12-18T01:37:31;-3.20;99.90
26230;DHT22;13960;50.860;4.352;2022-12-18T01:39:57;-2.90;99.90
26230;DHT22;13960;50.860;4.352;2022-12-18T01:42:22;-2.80;99.90
26230;DHT22;13960;50.860;4.352;2022-12-18T01:45:03;-2.70;99.90
26230;DHT22;13960;50.860;4.352;2022-12-18T01:47:33;-2.50;99.90
26230;DHT22;13960;50.860;4.352;2022-12-18T01:52:52;-2.50;99.90
26230;DHT22;13960;50.860;4.352;2022-12-18T01:55:19;-2.50;99.90
26230;DHT22;13960;50.860;4.352;2022-12-18T01:57:46;-2.40;99.90
26230;DHT22;13960;50.860;4.352;2022-12-18T02:00:18;-2.60;99.90
26230;DHT22;13960;50.860;4.352;2022-12-18T02:02:47;-2.80;99.90
26230;DHT22;13960;50.860;4.352;2022-12-18T02:05:15;-2.80;99.90
26230;DHT22;13960;50.860;4.352;2022-12-18T02:10:20;-2.80;99.90
26230;DHT22;13960;50.860;4.352;2022-12-18T02:15:34;-2.80;99.90
26230;DHT22;13960;50.860;4.352;2022-12-18T02:18:11;-2.90;99.90
26230;DHT22;13960;50.860;4.352;2022-12-18T02:23:28;-2.60;99.90
26230;DHT22;13960;50.860;4.352;2022-12-18T02:26:05;-2.80;99.90
26230;DHT22;13960;50.860;4.352;2022-12-18T02:28:33;-2.90;99.90
26230;DHT22;13960;50.860;4.352;2022-12-18T02:31:00;-2.90;99.90
26230;DHT22;13960;50.860;4.352;2022-12-18T02:33:27;-2.90;99.90
26230;DHT22;13960;50.860;4.352;2022-12-18T02:35:54;-2.90;99.90
26230;DHT22;13960;50.860;4.352;2022-12-18T02:38:20;-2.80;99.90
26230;DHT22;13960;50.860;4.352;2022-12-18T02:40:46;-2.60;99.90
26230;DHT22;13960;50.860;4.352;2022-12-18T02:43:13;-2.40;99.90
26230;DHT22;13960;50.860;4.352;2022-12-18T02:45:50;-2.30;99.90
26230;DHT22;13960;50.860;4.352;2022-12-18T02:48:16;-2.50;99.90
26230;DHT22;13960;50.860;4.352;2022-12-18T02:50:48;-2.30;99.90
26230;DHT22;13960;50.860;4.352;2022-12-18T02:53:18;-2.30;99.90
26230;DHT22;13960;50.860;4.352;2022-12-18T03:01:13;-3.00;99.90
26230;DHT22;13960;50.860;4.352;2022-12-18T03:03:42;-3.20;99.90
26230;DHT22;13960;50.860;4.352;2022-12-18T03:06:10;-3.20;99.90
26230;DHT22;13960;50.860;4.352;2022-12-18T03:08:39;-3.00;99.90
26230;DHT22;13960;50.860;4.352;2022-12-18T03:11:07;-2.70;99.90
26230;DHT22;13960;50.860;4.352;2022-12-18T03:16:02;-2.30;99.90
26230;DHT22;13960;50.860;4.352;2022-12-18T03:18:36;-2.40;99.90
26230;DHT22;13960;50.860;4.352;2022-12-18T03:21:04;-2.70;99.90
26230;DHT22;13960;50.860;4.352;2022-12-18T03:23:32;-2.70;99.90
26230;DHT22;13960;50.860;4.352;2022-12-18T03:26:00;-2.90;99.90
26230;DHT22;13960;50.860;4.352;2022-12-18T03:28:26;-3.00;99.90
26230;DHT22;13960;50.860;4.352;2022-12-18T03:30:56;-3.20;99.90
26230;DHT22;13960;50.860;4.352;2022-12-18T03:33:24;-3.20;99.90
26230;DHT22;13960;50.860;4.352;2022-12-18T03:35:51;-3.10;99.90
26230;DHT22;13960;50.860;4.352;2022-12-18T03:38:16;-2.90;99.90
26230;DHT22;13960;50.860;4.352;2022-12-18T03:43:18;-2.50;99.90
26230;DHT22;13960;50.860;4.352;2022-12-18T03:45:51;-2.40;99.90
26230;DHT22;13960;50.860;4.352;2022-12-18T03:48:51;-2.30;99.90
26230;DHT22;13960;50.860;4.352;2022-12-18T03:51:12;-2.10;99.90
26230;DHT22;13960;50.860;4.352;2022-12-18T03:56:05;-2.10;99.90
26230;DHT22;13960;50.860;4.352;2022-12-18T03:58:31;-2.10;99.90
26230;DHT22;13960;50.860;4.352;2022-12-18T04:00:59;-2.00;99.90
26230;DHT22;13960;50.860;4.352;2022-12-18T04:03:25;-2.20;99.90
26230;DHT22;13960;50.860;4.352;2022-12-18T04:05:53;-2.30;99.90
26230;DHT22;13960;50.860;4.352;2022-12-18T04:08:19;-2.30;99.90
26230;DHT22;13960;50.860;4.352;2022-12-18T04:10:45;-2.40;99.90
26230;DHT22;13960;50.860;4.352;2022-12-18T04:13:11;-2.10;99.90
26230;DHT22;13960;50.860;4.352;2022-12-18T04:15:36;-2.00;99.90
26230;DHT22;13960;50.860;4.352;2022-12-18T04:18:02;-2.20;99.90
26230;DHT22;13960;50.860;4.352;2022-12-18T04:20:28;-2.10;99.90
26230;DHT22;13960;50.860;4.352;2022-12-18T04:22:54;-2.10;99.90
26230;DHT22;13960;50.860;4.352;2022-12-18T04:25:19;-2.00;99.90
26230;DHT22;13960;50.860;4.352;2022-12-18T04:27:45;-2.20;99.90
26230;DHT22;13960;50.860;4.352;2022-12-18T04:30:10;-2.60;99.90
26230;DHT22;13960;50.860;4.352;2022-12-18T04:32:36;-2.50;99.90
26230;DHT22;13960;50.860;4.352;2022-12-18T04:35:02;-2.50;99.90
26230;DHT22;13960;50.860;4.352;2022-12-18T04:37:29;-2.70;99.90
26230;DHT22;13960;50.860;4.352;2022-12-18T04:39:55;-2.80;99.90
26230;DHT22;13960;50.860;4.352;2022-12-18T04:42:20;-2.80;99.90
26230;DHT22;13960;50.860;4.352;2022-12-18T04:44:46;-3.00;99.90
26230;DHT22;13960;50.860;4.352;2022-12-18T04:47:11;-3.00;99.90
26230;DHT22;13960;50.860;4.352;2022-12-18T04:49:37;-2.90;99.90
26230;DHT22;13960;50.860;4.352;2022-12-18T04:52:03;-2.80;99.90
26230;DHT22;13960;50.860;4.352;2022-12-18T04:54:28;-2.70;99.90
26230;DHT22;13960;50.860;4.352;2022-12-18T04:56:54;-2.70;99.90
26230;DHT22;13960;50.860;4.352;2022-12-18T04:59:19;-3.00;99.90
26230;DHT22;13960;50.860;4.352;2022-12-18T05:01:46;-3.00;99.90
26230;DHT22;13960;50.860;4.352;2022-12-18T05:04:11;-3.00;99.90
26230;DHT22;13960;50.860;4.352;2022-12-18T05:06:37;-3.00;99.90
26230;DHT22;13960;50.860;4.352;2022-12-18T05:09:02;-3.20;99.90
26230;DHT22;13960;50.860;4.352;2022-12-18T05:11:28;-3.60;99.90
26230;DHT22;13960;50.860;4.352;2022-12-18T05:13:53;-3.80;99.90
26230;DHT22;13960;50.860;4.352;2022-12-18T05:16:19;-3.50;99.90
26230;DHT22;13960;50.860;4.352;2022-12-18T05:18:44;-3.50;99.90
26230;DHT22;13960;50.860;4.352;2022-12-18T05:21:10;-3.50;99.90
26230;DHT22;13960;50.860;4.352;2022-12-18T05:23:36;-3.30;99.90
26230;DHT22;13960;50.860;4.352;2022-12-18T05:26:02;-2.90;99.90
26230;DHT22;13960;50.860;4.352;2022-12-18T05:28:29;-2.70;99.90
26230;DHT22;13960;50.860;4.352;2022-12-18T05:30:56;-2.80;99.90
26230;DHT22;13960;50.860;4.352;2022-12-18T05:33:22;-2.70;99.90
26230;DHT22;13960;50.860;4.352;2022-12-18T05:35:52;-2.60;99.90
26230;DHT22;13960;50.860;4.352;2022-12-18T05:38:19;-2.70;99.90
26230;DHT22;13960;50.860;4.352;2022-12-18T05:40:45;-2.50;99.90
26230;DHT22;13960;50.860;4.352;2022-12-18T05:43:11;-2.30;99.90
26230;DHT22;13960;50.860;4.352;2022-12-18T05:45:37;-2.20;99.90
26230;DHT22;13960;50.860;4.352;2022-12-18T05:48:03;-2.20;99.90
26230;DHT22;13960;50.860;4.352;2022-12-18T05:50:29;-2.20;99.90
26230;DHT22;13960;50.860;4.352;2022-12-18T05:52:54;-2.20;99.90
26230;DHT22;13960;50.860;4.352;2022-12-18T05:55:20;-2.30;99.90
26230;DHT22;13960;50.860;4.352;2022-12-18T05:57:45;-2.30;99.90
26230;DHT22;13960;50.860;4.352;2022-12-18T06:00:11;-2.30;99.90
26230;DHT22;13960;50.860;4.352;2022-12-18T06:02:37;-2.30;99.90
26230;DHT22;13960;50.860;4.352;2022-12-18T06:05:02;-2.50;99.90
26230;DHT22;13960;50.860;4.352;2022-12-18T06:07:28;-2.30;99.90
26230;DHT22;13960;50.860;4.352;2022-12-18T06:09:53;-2.80;99.90
26230;DHT22;13960;50.860;4.352;2022-12-18T06:12:19;-3.00;99.90
26230;DHT22;13960;50.860;4.352;2022-12-18T06:14:44;-3.10;99.90
26230;DHT22;13960;50.860;4.352;2022-12-18T06:17:10;-3.00;99.90
26230;DHT22;13960;50.860;4.352;2022-12-18T06:19:35;-3.10;99.90
26230;DHT22;13960;50.860;4.352;2022-12-18T06:22:01;-2.90;99.90
26230;DHT22;13960;50.860;4.352;2022-12-18T06:24:26;-2.80;99.90
26230;DHT22;13960;50.860;4.352;2022-12-18T06:26:52;-2.60;99.90
26230;DHT22;13960;50.860;4.352;2022-12-18T06:29:17;-2.80;99.90
26230;DHT22;13960;50.860;4.352;2022-12-18T06:31:44;-2.90;99.90
26230;DHT22;13960;50.860;4.352;2022-12-18T06:34:10;-2.90;99.90
26230;DHT22;13960;50.860;4.352;2022-12-18T06:36:35;-2.90;99.90
26230;DHT22;13960;50.860;4.352;2022-12-18T06:39:01;-2.70;99.90
26230;DHT22;13960;50.860;4.352;2022-12-18T06:41:27;-2.70;99.90
26230;DHT22;13960;50.860;4.352;2022-12-18T06:43:53;-2.80;99.90
26230;DHT22;13960;50.860;4.352;2022-12-18T06:46:19;-2.90;99.90
26230;DHT22;13960;50.860;4.352;2022-12-18T06:48:48;-3.10;99.90
26230;DHT22;13960;50.860;4.352;2022-12-18T06:51:16;-3.30;99.90
26230;DHT22;13960;50.860;4.352;2022-12-18T06:53:41;-3.40;99.90
26230;DHT22;13960;50.860;4.352;2022-12-18T06:56:07;-3.30;99.90
26230;DHT22;13960;50.860;4.352;2022-12-18T06:58:32;-3.50;99.90
26230;DHT22;13960;50.860;4.352;2022-12-18T07:01:01;-3.40;99.90
26230;DHT22;13960;50.860;4.352;2022-12-18T07:03:27;-3.30;99.90
26230;DHT22;13960;50.860;4.352;2022-12-18T07:05:52;-3.40;99.90
26230;DHT22;13960;50.860;4.352;2022-12-18T07:08:18;-3.40;99.90
26230;DHT22;13960;50.860;4.352;2022-12-18T07:10:43;-3.50;99.90
26230;DHT22;13960;50.860;4.352;2022-12-18T07:13:09;-3.60;99.90
26230;DHT22;13960;50.860;4.352;2022-12-18T07:15:35;-3.50;99.90
26230;DHT22;13960;50.860;4.352;2022-12-18T07:18:00;-3.40;99.90
26230;DHT22;13960;50.860;4.352;2022-12-18T07:20:26;-3.50;99.90
26230;DHT22;13960;50.860;4.352;2022-12-18T07:22:51;-3.30;99.90
26230;DHT22;13960;50.860;4.352;2022-12-18T07:25:17;-3.30;99.90
26230;DHT22;13960;50.860;4.352;2022-12-18T07:27:42;-3.30;99.90
26230;DHT22;13960;50.860;4.352;2022-12-18T07:30:08;-3.40;99.90
26230;DHT22;13960;50.860;4.352;2022-12-18T07:32:34;-3.50;99.90
26230;DHT22;13960;50.860;4.352;2022-12-18T07:34:59;-3.50;99.90
26230;DHT22;13960;50.860;4.352;2022-12-18T07:37:25;-3.40;99.90
26230;DHT22;13960;50.860;4.352;2022-12-18T07:39:50;-3.10;99.90
26230;DHT22;13960;50.860;4.352;2022-12-18T07:42:16;-2.80;99.90
26230;DHT22;13960;50.860;4.352;2022-12-18T07:44:57;-2.70;99.90
26230;DHT22;13960;50.860;4.352;2022-12-18T07:47:22;-2.80;99.90
26230;DHT22;13960;50.860;4.352;2022-12-18T07:49:48;-3.00;99.90
26230;DHT22;13960;50.860;4.352;2022-12-18T07:52:14;-3.30;99.90
26230;DHT22;13960;50.860;4.352;2022-12-18T07:54:39;-3.30;99.90
26230;DHT22;13960;50.860;4.352;2022-12-18T07:57:08;-3.10;99.90
26230;DHT22;13960;50.860;4.352;2022-12-18T07:59:34;-3.10;99.90
26230;DHT22;13960;50.860;4.352;2022-12-18T08:01:59;-3.20;99.90
26230;DHT22;13960;50.860;4.352;2022-12-18T08:04:25;-3.30;99.90
26230;DHT22;13960;50.860;4.352;2022-12-18T08:06:51;-3.30;99.90
26230;DHT22;13960;50.860;4.352;2022-12-18T08:09:16;-3.10;99.90
26230;DHT22;13960;50.860;4.352;2022-12-18T08:11:42;-2.90;99.90
26230;DHT22;13960;50.860;4.352;2022-12-18T08:14:08;-2.80;99.90
26230;DHT22;13960;50.860;4.352;2022-12-18T08:16:33;-2.60;99.90
26230;DHT22;13960;50.860;4.352;2022-12-18T08:18:59;-2.40;99.90
26230;DHT22;13960;50.860;4.352;2022-12-18T08:21:26;-2.20;99.90
26230;DHT22;13960;50.860;4.352;2022-12-18T08:23:52;-2.20;99.90
26230;DHT22;13960;50.860;4.352;2022-12-18T08:26:18;-1.80;99.90
26230;DHT22;13960;50.860;4.352;2022-12-18T08:28:44;-1.70;99.90
26230;DHT22;13960;50.860;4.352;2022-12-18T08:31:09;-1.80;99.90
26230;DHT22;13960;50.860;4.352;2022-12-18T08:33:36;-2.10;99.90
26230;DHT22;13960;50.860;4.352;2022-12-18T08:36:03;-2.00;99.90
26230;DHT22;13960;50.860;4.352;2022-12-18T08:38:29;-1.70;99.90
26230;DHT22;13960;50.860;4.352;2022-12-18T08:43:49;-2.30;99.90
26230;DHT22;13960;50.860;4.352;2022-12-18T08:46:37;-2.10;99.90
26230;DHT22;13960;50.860;4.352;2022-12-18T08:49:04;-1.80;99.90
26230;DHT22;13960;50.860;4.352;2022-12-18T08:51:29;-1.60;99.90
26230;DHT22;13960;50.860;4.352;2022-12-18T08:53:55;-1.80;99.90
26230;DHT22;13960;50.860;4.352;2022-12-18T08:56:20;-1.90;99.90
26230;DHT22;13960;50.860;4.352;2022-12-18T08:58:46;-2.10;99.90
26230;DHT22;13960;50.860;4.352;2022-12-18T09:01:12;-2.10;99.90
26230;DHT22;13960;50.860;4.352;2022-12-18T09:03:37;-1.90;99.90
26230;DHT22;13960;50.860;4.352;2022-12-18T09:06:04;-1.80;99.90
26230;DHT22;13960;50.860;4.352;2022-12-18T09:08:30;-1.70;99.90
26230;DHT22;13960;50.860;4.352;2022-12-18T09:10:55;-1.50;99.90
26230;DHT22;13960;50.860;4.352;2022-12-18T09:13:21;-1.40;99.90
26230;DHT22;13960;50.860;4.352;2022-12-18T09:15:48;-1.20;99.90
26230;DHT22;13960;50.860;4.352;2022-12-18T09:18:15;-1.20;99.90
26230;DHT22;13960;50.860;4.352;2022-12-18T09:20:40;-1.10;99.90
26230;DHT22;13960;50.860;4.352;2022-12-18T09:23:07;-1.10;99.90
26230;DHT22;13960;50.860;4.352;2022-12-18T09:25:33;-1.10;99.90
26230;DHT22;13960;50.860;4.352;2022-12-18T09:28:10;-1.00;99.90
26230;DHT22;13960;50.860;4.352;2022-12-18T09:30:40;-0.80;99.90
26230;DHT22;13960;50.860;4.352;2022-12-18T09:33:06;-0.70;99.90
26230;DHT22;13960;50.860;4.352;2022-12-18T09:35:32;-0.90;99.90
26230;DHT22;13960;50.860;4.352;2022-12-18T09:37:57;-0.80;99.90
26230;DHT22;13960;50.860;4.352;2022-12-18T09:40:24;-0.90;99.90
26230;DHT22;13960;50.860;4.352;2022-12-18T09:43:00;-0.70;99.90
26230;DHT22;13960;50.860;4.352;2022-12-18T09:45:28;-0.80;99.90
26230;DHT22;13960;50.860;4.352;2022-12-18T09:47:55;-0.80;99.90
26230;DHT22;13960;50.860;4.352;2022-12-18T09:50:27;-0.70;99.90
26230;DHT22;13960;50.860;4.352;2022-12-18T09:52:55;-0.60;99.90
26230;DHT22;13960;50.860;4.352;2022-12-18T09:55:24;-0.70;99.90
26230;DHT22;13960;50.860;4.352;2022-12-18T09:57:55;-0.60;99.90
26230;DHT22;13960;50.860;4.352;2022-12-18T10:00:23;-0.50;99.90
26230;DHT22;13960;50.860;4.352;2022-12-18T10:02:49;-0.20;99.90
26230;DHT22;13960;50.860;4.352;2022-12-18T10:05:28;-0.20;99.90
26230;DHT22;13960;50.860;4.352;2022-12-18T10:10:48;-0.20;99.90
26230;DHT22;13960;50.860;4.352;2022-12-18T10:21:04;-0.10;99.90
26230;DHT22;13960;50.860;4.352;2022-12-18T10:23:37;-0.20;99.90
26230;DHT22;13960;50.860;4.352;2022-12-18T10:26:06;-0.10;99.90
26230;DHT22;13960;50.860;4.352;2022-12-18T10:28:32;0.00;99.90
26230;DHT22;13960;50.860;4.352;2022-12-18T10:30:58;-0.10;99.90
26230;DHT22;13960;50.860;4.352;2022-12-18T10:33:24;0.00;99.90
26230;DHT22;13960;50.860;4.352;2022-12-18T10:35:53;0.20;99.90
26230;DHT22;13960;50.860;4.352;2022-12-18T10:38:20;0.30;99.90
26230;DHT22;13960;50.860;4.352;2022-12-18T10:40:48;0.30;99.90
26230;DHT22;13960;50.860;4.352;2022-12-18T10:43:15;0.20;99.90
26230;DHT22;13960;50.860;4.352;2022-12-18T10:45:41;0.40;99.90
26230;DHT22;13960;50.860;4.352;2022-12-18T10:48:19;0.50;99.90
26230;DHT22;13960;50.860;4.352;2022-12-18T10:50:47;0.60;99.90
26230;DHT22;13960;50.860;4.352;2022-12-18T10:53:16;0.50;99.90
26230;DHT22;13960;50.860;4.352;2022-12-18T10:55:44;0.60;99.90
26230;DHT22;13960;50.860;4.352;2022-12-18T10:58:30;0.60;99.90
26230;DHT22;13960;50.860;4.352;2022-12-18T11:01:03;0.70;99.90
26230;DHT22;13960;50.860;4.352;2022-12-18T11:03:33;0.70;99.90
26230;DHT22;13960;50.860;4.352;2022-12-18T11:06:05;0.70;99.90
26230;DHT22;13960;50.860;4.352;2022-12-18T11:08:31;0.70;99.90
26230;DHT22;13960;50.860;4.352;2022-12-18T11:10:56;0.90;99.90
26230;DHT22;13960;50.860;4.352;2022-12-18T11:13:23;1.30;99.90
26230;DHT22;13960;50.860;4.352;2022-12-18T11:15:50;1.30;99.90
26230;DHT22;13960;50.860;4.352;2022-12-18T11:18:36;1.50;99.90
26230;DHT22;13960;50.860;4.352;2022-12-18T11:21:05;1.60;99.90
26230;DHT22;13960;50.860;4.352;2022-12-18T11:23:32;1.30;99.90
26230;DHT22;13960;50.860;4.352;2022-12-18T11:25:59;1.50;99.90
26230;DHT22;13960;50.860;4.352;2022-12-18T11:28:35;1.50;99.90
26230;DHT22;13960;50.860;4.352;2022-12-18T11:33:37;1.50;99.90
26230;DHT22;13960;50.860;4.352;2022-12-18T11:36:03;1.50;99.90
26230;DHT22;13960;50.860;4.352;2022-12-18T11:38:30;1.40;99.90
26230;DHT22;13960;50.860;4.352;2022-12-18T11:41:04;1.30;99.90
26230;DHT22;13960;50.860;4.352;2022-12-18T11:43:35;1.40;99.90
26230;DHT22;13960;50.860;4.352;2022-12-18T11:46:15;1.40;99.90
26230;DHT22;13960;50.860;4.352;2022-12-18T11:48:48;1.40;99.90
26230;DHT22;13960;50.860;4.352;2022-12-18T11:51:17;1.60;99.90
26230;DHT22;13960;50.860;4.352;2022-12-18T11:53:44;1.50;99.90
26230;DHT22;13960;50.860;4.352;2022-12-18T11:56:26;1.30;99.90
26230;DHT22;13960;50.860;4.352;2022-12-18T12:06:27;1.50;99.90
26230;DHT22;13960;50.860;4.352;2022-12-18T12:09:06;1.50;99.90
26230;DHT22;13960;50.860;4.352;2022-12-18T12:14:21;1.50;99.90
26230;DHT22;13960;50.860;4.352;2022-12-18T12:17:01;1.60;99.90
26230;DHT22;13960;50.860;4.352;2022-12-18T12:30:11;1.70;99.90
26230;DHT22;13960;50.860;4.352;2022-12-18T12:35:14;1.40;99.90
26230;DHT22;13960;50.860;4.352;2022-12-18T12:37:51;1.40;99.90
26230;DHT22;13960;50.860;4.352;2022-12-18T12:40:18;1.60;99.90
26230;DHT22;13960;50.860;4.352;2022-12-18T12:42:46;1.80;99.90
26230;DHT22;13960;50.860;4.352;2022-12-18T12:45:37;1.80;99.90
26230;DHT22;13960;50.860;4.352;2022-12-18T12:48:05;1.80;99.90
26230;DHT22;13960;50.860;4.352;2022-12-18T12:50:33;1.70;99.90
26230;DHT22;13960;50.860;4.352;2022-12-18T12:52:59;1.80;99.90
26230;DHT22;13960;50.860;4.352;2022-12-18T12:55:27;1.80;99.90
26230;DHT22;13960;50.860;4.352;2022-12-18T13:00:25;1.70;99.90
26230;DHT22;13960;50.860;4.352;2022-12-18T13:03:00;1.70;99.90
26230;DHT22;13960;50.860;4.352;2022-12-18T13:05:34;1.80;99.90
26230;DHT22;13960;50.860;4.352;2022-12-18T13:08:10;1.70;99.90
26230;DHT22;13960;50.860;4.352;2022-12-18T13:10:39;1.70;99.90
26230;DHT22;13960;50.860;4.352;2022-12-18T13:13:07;1.80;99.90
26230;DHT22;13960;50.860;4.352;2022-12-18T13:20:35;1.80;99.90
26230;DHT22;13960;50.860;4.352;2022-12-18T13:23:18;1.70;99.90
26230;DHT22;13960;50.860;4.352;2022-12-18T13:25:44;1.60;99.90
26230;DHT22;13960;50.860;4.352;2022-12-18T13:28:13;1.60;99.90
26230;DHT22;13960;50.860;4.352;2022-12-18T13:30:50;1.70;99.90
26230;DHT22;13960;50.860;4.352;2022-12-18T13:48:17;1.50;99.90
26230;DHT22;13960;50.860;4.352;2022-12-18T13:50:47;1.50;99.90
26230;DHT22;13960;50.860;4.352;2022-12-18T13:53:20;1.40;99.90
26230;DHT22;13960;50.860;4.352;2022-12-18T13:55:46;1.50;99.90
26230;DHT22;13960;50.860;4.352;2022-12-18T13:58:12;1.50;99.90
26230;DHT22;13960;50.860;4.352;2022-12-18T14:00:41;1.70;99.90
26230;DHT22;13960;50.860;4.352;2022-12-18T14:03:23;1.60;99.90
26230;DHT22;13960;50.860;4.352;2022-12-18T14:05:52;1.70;99.90
26230;DHT22;13960;50.860;4.352;2022-12-18T14:08:18;1.70;99.90
26230;DHT22;13960;50.860;4.352;2022-12-18T14:10:45;1.70;99.90
26230;DHT22;13960;50.860;4.352;2022-12-18T14:13:15;1.70;99.90
26230;DHT22;13960;50.860;4.352;2022-12-18T14:15:46;1.50;99.90
26230;DHT22;13960;50.860;4.352;2022-12-18T14:18:23;1.50;99.90
26230;DHT22;13960;50.860;4.352;2022-12-18T14:20:50;1.50;99.90
26230;DHT22;13960;50.860;4.352;2022-12-18T14:25:53;1.60;99.90
26230;DHT22;13960;50.860;4.352;2022-12-18T14:28:18;1.60;99.90
26230;DHT22;13960;50.860;4.352;2022-12-18T14:30:44;1.70;99.90
26230;DHT22;13960;50.860;4.352;2022-12-18T14:33:11;1.70;99.90
26230;DHT22;13960;50.860;4.352;2022-12-18T14:35:38;1.70;99.90
26230;DHT22;13960;50.860;4.352;2022-12-18T14:38:17;1.80;99.90
26230;DHT22;13960;50.860;4.352;2022-12-18T14:40:44;1.80;99.90
26230;DHT22;13960;50.860;4.352;2022-12-18T14:43:10;1.80;99.90
26230;DHT22;13960;50.860;4.352;2022-12-18T14:45:36;1.60;99.90
26230;DHT22;13960;50.860;4.352;2022-12-18T14:48:05;1.70;99.90
26230;DHT22;13960;50.860;4.352;2022-12-18T14:50:34;1.70;99.90
26230;DHT22;13960;50.860;4.352;2022-12-18T14:53:00;1.70;99.90
26230;DHT22;13960;50.860;4.352;2022-12-18T14:55:26;1.70;99.90
26230;DHT22;13960;50.860;4.352;2022-12-18T14:57:52;1.60;99.90
26230;DHT22;13960;50.860;4.352;2022-12-18T15:00:19;1.70;99.90
26230;DHT22;13960;50.860;4.352;2022-12-18T15:02:50;1.70;99.90
26230;DHT22;13960;50.860;4.352;2022-12-18T15:05:20;1.70;99.90
26230;DHT22;13960;50.860;4.352;2022-12-18T15:07:47;1.70;99.90
26230;DHT22;13960;50.860;4.352;2022-12-18T15:10:20;1.90;99.90
26230;DHT22;13960;50.860;4.352;2022-12-18T15:17:59;1.80;99.90
26230;DHT22;13960;50.860;4.352;2022-12-18T15:20:27;1.80;99.90
26230;DHT22;13960;50.860;4.352;2022-12-18T15:22:55;1.80;99.90
26230;DHT22;13960;50.860;4.352;2022-12-18T15:25:26;1.80;99.90
26230;DHT22;13960;50.860;4.352;2022-12-18T15:27:54;1.70;99.90
26230;DHT22;13960;50.860;4.352;2022-12-18T15:30:20;1.70;99.90
26230;DHT22;13960;50.860;4.352;2022-12-18T15:32:46;1.70;99.90
26230;DHT22;13960;50.860;4.352;2022-12-18T15:35:22;1.80;99.90
26230;DHT22;13960;50.860;4.352;2022-12-18T15:37:48;1.80;99.90
26230;DHT22;13960;50.860;4.352;2022-12-18T15:40:15;1.90;99.90
26230;DHT22;13960;50.860;4.352;2022-12-18T15:42:41;1.90;99.90
26230;DHT22;13960;50.860;4.352;2022-12-18T15:45:25;1.90;99.90
26230;DHT22;13960;50.860;4.352;2022-12-18T15:47:51;2.00;99.90
26230;DHT22;13960;50.860;4.352;2022-12-18T15:50:16;2.10;99.90
26230;DHT22;13960;50.860;4.352;2022-12-18T15:52:45;1.90;99.90
26230;DHT22;13960;50.860;4.352;2022-12-18T15:55:19;1.90;99.90
26230;DHT22;13960;50.860;4.352;2022-12-18T15:58:04;2.00;99.90
26230;DHT22;13960;50.860;4.352;2022-12-18T16:00:29;2.00;99.90
26230;DHT22;13960;50.860;4.352;2022-12-18T16:02:55;1.90;99.90
26230;DHT22;13960;50.860;4.352;2022-12-18T16:05:21;1.80;99.90
26230;DHT22;13960;50.860;4.352;2022-12-18T16:07:47;1.80;99.90
26230;DHT22;13960;50.860;4.352;2022-12-18T16:10:13;1.70;99.90
26230;DHT22;13960;50.860;4.352;2022-12-18T16:12:38;1.90;99.90
26230;DHT22;13960;50.860;4.352;2022-12-18T16:15:04;2.00;99.90
26230;DHT22;13960;50.860;4.352;2022-12-18T16:17:30;1.90;99.90
26230;DHT22;13960;50.860;4.352;2022-12-18T16:19:56;2.00;99.90
26230;DHT22;13960;50.860;4.352;2022-12-18T16:22:22;2.00;99.90
26230;DHT22;13960;50.860;4.352;2022-12-18T16:24:49;1.90;99.90
26230;DHT22;13960;50.860;4.352;2022-12-18T16:27:15;1.80;99.90
26230;DHT22;13960;50.860;4.352;2022-12-18T16:29:40;1.90;99.90
26230;DHT22;13960;50.860;4.352;2022-12-18T16:32:06;2.00;99.90
26230;DHT22;13960;50.860;4.352;2022-12-18T16:34:32;2.00;99.90
26230;DHT22;13960;50.860;4.352;2022-12-18T16:36:59;1.90;99.90
26230;DHT22;13960;50.860;4.352;2022-12-18T16:39:25;2.00;99.90
26230;DHT22;13960;50.860;4.352;2022-12-18T16:41:51;2.00;99.90
26230;DHT22;13960;50.860;4.352;2022-12-18T16:44:17;2.00;99.90
26230;DHT22;13960;50.860;4.352;2022-12-18T16:46:42;2.10;99.90
26230;DHT22;13960;50.860;4.352;2022-12-18T16:49:11;2.10;99.90
26230;DHT22;13960;50.860;4.352;2022-12-18T16:51:36;2.10;99.90
26230;DHT22;13960;50.860;4.352;2022-12-18T16:54:02;2.20;99.90
26230;DHT22;13960;50.860;4.352;2022-12-18T16:56:28;2.20;99.90
26230;DHT22;13960;50.860;4.352;2022-12-18T16:58:54;2.20;99.90
26230;DHT22;13960;50.860;4.352;2022-12-18T17:01:20;2.20;99.90
26230;DHT22;13960;50.860;4.352;2022-12-18T17:03:52;2.20;99.90
26230;DHT22;13960;50.860;4.352;2022-12-18T17:06:18;2.20;99.90
26230;DHT22;13960;50.860;4.352;2022-12-18T17:08:44;2.20;99.90
26230;DHT22;13960;50.860;4.352;2022-12-18T17:11:09;2.30;99.90
26230;DHT22;13960;50.860;4.352;2022-12-18T17:13:35;2.30;99.90
26230;DHT22;13960;50.860;4.352;2022-12-18T17:16:01;2.40;99.90